createdAt,value
2023-04-15T00:01:15.220Z,3.19
2023-04-15T00:06:33.562Z,3.12
2023-04-15T00:16:58.607Z,3
2023-04-15T00:22:17.028Z,3
2023-04-15T00:27:35.220Z,3.06
2023-04-15T00:32:53.682Z,3.06
2023-04-15T00:38:11.766Z,3.06
2023-04-15T00:43:29.984Z,3.06
2023-04-15T00:48:48.326Z,3.12
2023-04-15T00:54:06.981Z,3
2023-04-15T00:59:26.380Z,3
2023-04-15T01:04:45.194Z,3
2023-04-15T01:10:03.725Z,3.19
2023-04-15T01:15:21.867Z,3.12
2023-04-15T01:20:41.046Z,3
2023-04-15T01:26:00.412Z,2.94
2023-04-15T01:31:19.177Z,2.69
2023-04-15T01:36:37.544Z,2.69
2023-04-15T01:41:57.000Z,2.62
2023-04-15T01:47:16.303Z,2.5
2023-04-15T01:52:39.737Z,2.31
2023-04-15T01:57:55.795Z,2.19
2023-04-15T02:03:14.051Z,2
2023-04-15T02:13:39.655Z,2.06
2023-04-15T02:18:58.154Z,2
2023-04-15T02:24:16.352Z,2
2023-04-15T02:29:35.025Z,2
2023-04-15T02:34:53.851Z,1.87
2023-04-15T02:40:12.308Z,1.87
2023-04-15T02:45:31.149Z,1.94
2023-04-15T02:50:50.010Z,2
2023-04-15T03:01:15.073Z,1.81
2023-04-15T03:06:33.276Z,1.81
2023-04-15T03:11:51.667Z,1.75
2023-04-15T03:17:10.494Z,1.87
2023-04-15T03:22:29.276Z,1.94
2023-04-15T03:27:47.723Z,1.87
2023-04-15T03:33:06.028Z,1.94
2023-04-15T03:38:24.505Z,2.06
2023-04-15T03:43:43.265Z,2.31
2023-04-15T03:49:01.808Z,2.31
2023-04-15T03:54:20.440Z,2.25
2023-04-15T03:59:38.871Z,2.19
2023-04-15T04:04:57.282Z,2.19
2023-04-15T04:10:15.986Z,2.12
2023-04-15T04:15:34.411Z,2
2023-04-15T04:20:52.557Z,2
2023-04-15T04:26:11.317Z,1.94
2023-04-15T04:31:30.194Z,2.06
2023-04-15T04:36:48.624Z,2.25
2023-04-15T04:42:08.057Z,2.44
2023-04-15T04:47:26.939Z,2.44
2023-04-15T04:57:50.252Z,2.31
2023-04-15T05:03:09.780Z,2.37
2023-04-15T05:08:27.938Z,2.31
2023-04-15T05:13:46.497Z,2.31
2023-04-15T05:19:05.175Z,2.19
2023-04-15T05:29:28.029Z,2.19
2023-04-15T05:34:46.418Z,2.25
2023-04-15T05:40:05.014Z,2.5
2023-04-15T05:45:23.720Z,2.62
2023-04-15T05:50:43.237Z,2.81
2023-04-15T06:01:08.471Z,3.31
2023-04-15T06:06:27.244Z,3.56
2023-04-15T06:11:46.191Z,3.69
2023-04-15T06:17:05.012Z,4
2023-04-15T06:22:23.799Z,4.25
2023-04-15T06:27:41.835Z,4.37
2023-04-15T06:33:00.913Z,4.56
2023-04-15T06:38:19.502Z,4.69
2023-04-15T06:43:38.257Z,4.87
2023-04-15T06:48:57.060Z,4.94
2023-04-15T06:54:15.524Z,5.37
2023-04-15T06:59:34.543Z,5.75
2023-04-15T07:04:54.945Z,6
2023-04-15T07:10:13.439Z,6.25
2023-04-15T07:15:33.345Z,6.87
2023-04-15T07:20:55.053Z,7.44
2023-04-15T07:26:14.299Z,8.25
2023-04-15T07:31:33.657Z,8.75
2023-04-15T07:36:52.195Z,8.88
2023-04-15T07:42:11.282Z,9.06
2023-04-15T07:47:30.155Z,9.19
2023-04-15T07:52:48.738Z,9.19
2023-04-15T07:58:07.722Z,9.88
2023-04-15T08:03:26.863Z,10.5
2023-04-15T08:08:47.081Z,10.75
2023-04-15T08:14:06.168Z,10.69
2023-04-15T08:19:24.468Z,10.75
2023-04-15T08:24:45.320Z,11.19
2023-04-15T08:30:04.945Z,11.19
2023-04-15T08:35:23.173Z,12.06
2023-04-15T08:40:41.939Z,12.37
2023-04-15T08:46:00.350Z,12.19
2023-04-15T08:51:19.259Z,13.62
2023-04-15T08:56:38.700Z,14.56
2023-04-15T09:01:57.894Z,14.25
2023-04-15T09:07:17.570Z,16.75
2023-04-15T09:12:36.807Z,15.88
2023-04-15T09:17:54.877Z,17
2023-04-15T09:23:13.478Z,15.25
2023-04-15T09:28:31.264Z,16
2023-04-15T09:33:50.587Z,16.44
2023-04-15T09:39:08.712Z,15.81
2023-04-15T09:44:28.013Z,18.81
2023-04-15T09:49:47.315Z,16.75
2023-04-15T09:55:06.004Z,18.37
2023-04-15T10:00:24.497Z,17.94
2023-04-15T10:05:43.797Z,17.56
2023-04-15T10:11:01.994Z,17
2023-04-15T10:16:21.415Z,16.19
2023-04-15T10:21:41.592Z,16.37
2023-04-15T10:27:00.173Z,16.37
2023-04-15T10:32:18.800Z,16.5
2023-04-15T10:37:37.162Z,16.12
2023-04-15T10:42:55.438Z,16.06
2023-04-15T10:48:13.384Z,15.88
2023-04-15T10:53:31.456Z,15.63
2023-04-15T10:58:50.025Z,15.13
2023-04-15T11:04:10.559Z,15.63
2023-04-15T11:14:35.992Z,15.19
2023-04-15T11:19:54.291Z,15.13
2023-04-15T11:25:14.381Z,14.75
2023-04-15T11:30:33.525Z,14.31
2023-04-15T11:35:51.827Z,13.81
2023-04-15T11:41:10.568Z,13.94
2023-04-15T11:46:30.817Z,14.06
2023-04-15T11:51:49.729Z,14.38
2023-04-15T11:57:08.439Z,14.75
2023-04-15T12:02:29.294Z,15.56
2023-04-15T12:07:48.052Z,15.38
2023-04-15T12:13:06.513Z,15.63
2023-04-15T12:18:24.985Z,15.19
2023-04-15T12:23:46.008Z,14.38
2023-04-15T12:29:04.352Z,14.25
2023-04-15T12:34:22.666Z,13.56
2023-04-15T12:39:42.603Z,13.81
2023-04-15T12:45:01.184Z,14.06
2023-04-15T12:50:19.729Z,14.31
2023-04-15T12:55:39.856Z,14.19
2023-04-15T13:00:58.921Z,14.31
2023-04-15T13:06:17.875Z,14.06
2023-04-15T13:11:36.186Z,13.69
2023-04-15T13:16:54.201Z,13.75
2023-04-15T13:22:12.557Z,13.88
2023-04-15T13:27:31.399Z,13.94
2023-04-15T13:32:50.621Z,14.13
2023-04-15T13:38:09.427Z,14
2023-04-15T13:48:26.578Z,14
2023-04-15T13:53:46.640Z,13.5
2023-04-15T13:59:05.173Z,13.5
2023-04-15T14:04:25.196Z,14.13
2023-04-15T14:09:43.810Z,14.25
2023-04-15T14:15:02.466Z,14.25
2023-04-15T14:20:21.366Z,14.31
2023-04-15T14:25:39.978Z,14.13
2023-04-15T14:30:58.474Z,13.75
2023-04-15T14:36:16.971Z,13.44
2023-04-15T14:41:35.312Z,12.56
2023-04-15T14:46:53.257Z,12.06
2023-04-15T14:52:11.352Z,12
2023-04-15T14:57:29.843Z,11.88
2023-04-15T15:02:48.706Z,11.69
2023-04-15T15:08:06.905Z,11.75
2023-04-15T15:13:25.436Z,11.5
2023-04-15T15:18:43.502Z,11.19
2023-04-15T15:24:02.405Z,11.06
2023-04-15T15:34:27.235Z,10.19
2023-04-15T15:39:45.825Z,10.13
2023-04-15T15:45:04.433Z,10
2023-04-15T15:50:23.070Z,9.75
2023-04-15T15:55:41.837Z,9.5
2023-04-15T16:01:01.558Z,9.5
2023-04-15T16:06:18.188Z,9.5
2023-04-15T16:11:36.861Z,9.31
2023-04-15T16:16:55.057Z,9.19
2023-04-15T16:22:13.585Z,9.31
2023-04-15T16:27:32.184Z,9.31
2023-04-15T16:32:50.751Z,9.25
2023-04-15T16:43:16.174Z,8.94
2023-04-15T16:48:34.842Z,8.75
2023-04-15T16:53:53.416Z,8.63
2023-04-15T16:59:11.614Z,8.44
2023-04-15T17:04:30.190Z,8.25
2023-04-15T17:09:48.672Z,8.31
2023-04-15T17:15:07.468Z,8.31
2023-04-15T17:20:26.112Z,8.25
2023-04-15T17:25:44.764Z,8.19
2023-04-15T17:31:03.375Z,8.13
2023-04-15T17:36:21.934Z,8.13
2023-04-15T17:41:40.226Z,8.19
2023-04-15T17:46:58.933Z,8.13
2023-04-15T17:52:19.758Z,8.13
2023-04-15T17:57:38.831Z,8.06
2023-04-15T18:02:57.796Z,8.06
2023-04-15T18:08:15.832Z,7.94
2023-04-15T18:13:34.520Z,7.87
2023-04-15T18:18:52.823Z,7.81
2023-04-15T18:24:11.509Z,7.81
2023-04-15T18:29:30.093Z,7.81
2023-04-15T18:34:48.921Z,7.81
2023-04-15T18:40:07.057Z,7.75
2023-04-15T18:45:25.494Z,7.81
2023-04-15T18:55:50.828Z,7.75
2023-04-15T19:01:11.319Z,7.75
2023-04-15T19:06:28.167Z,7.75
2023-04-15T19:11:46.905Z,7.69
2023-04-15T19:17:05.173Z,7.75
2023-04-15T19:22:23.821Z,7.75
2023-04-15T19:27:42.456Z,7.75
2023-04-15T19:33:00.719Z,7.81
2023-04-15T19:38:19.277Z,7.75
2023-04-15T19:43:37.559Z,7.69
2023-04-15T19:48:56.108Z,7.75
2023-04-15T19:54:14.761Z,7.69
2023-04-15T19:59:33.564Z,7.75
2023-04-15T20:04:52.256Z,7.75
2023-04-15T20:10:12.157Z,7.69
2023-04-15T20:15:29.400Z,7.75
2023-04-15T20:20:48.077Z,7.75
2023-04-15T20:26:06.820Z,7.75
2023-04-15T20:31:25.476Z,7.75
2023-04-15T20:36:44.127Z,7.69
2023-04-15T20:42:02.809Z,7.69
2023-04-15T20:47:21.519Z,7.75
2023-04-15T20:52:39.698Z,7.75
2023-04-15T20:57:58.313Z,7.69
2023-04-15T21:03:17.429Z,7.69
2023-04-15T21:08:36.184Z,7.75
2023-04-15T21:13:55.135Z,7.69
2023-04-15T21:19:14.373Z,7.69
2023-04-15T21:24:33.211Z,7.69
2023-04-15T21:29:51.726Z,7.69
2023-04-15T21:35:10.297Z,7.69
2023-04-15T21:40:28.825Z,7.62
2023-04-15T21:46:20.810Z,7.69
2023-04-15T21:51:06.275Z,7.62
2023-04-15T22:06:28.053Z,7.62
2023-04-15T22:16:45.683Z,7.62
2023-04-15T22:22:04.752Z,7.62
2023-04-15T22:27:23.563Z,7.62
2023-04-15T22:32:44.361Z,7.62
2023-04-15T22:38:03.266Z,7.62
2023-04-15T22:43:21.999Z,7.62
2023-04-15T22:48:40.595Z,7.62
2023-04-15T22:53:59.228Z,7.62
2023-04-15T22:59:18.125Z,7.62
2023-04-15T23:04:37.201Z,7.56
2023-04-15T23:09:55.954Z,7.56
2023-04-15T23:15:14.719Z,7.56
2023-04-15T23:20:34.521Z,7.62
2023-04-15T23:25:53.401Z,7.56
2023-04-15T23:31:12.286Z,7.56
2023-04-15T23:36:31.225Z,7.56
2023-04-15T23:41:50.101Z,7.56
2023-04-15T23:47:09.003Z,7.56
2023-04-15T23:52:27.813Z,7.56
2023-04-15T23:57:47.838Z,7.56
